Ilulissat

KL  EN  DA
ASIAQ
Weather Now GREENLAND SURVEY
Updated [WGT/WGST] Temperature [°C] Wind [m/s] Air pressure [hPa] Relative humidity [%] Precipitation [mm]
Present Wind chill Speed Max
30.11 16:00-7,9-13,33,3 ⇙4,2998570,0
30.11 15:00-7,6-14,34,8 ⇙6,9998500,0
30.11 14:00-7,5-14,14,8 ⇙6,9999470,0
30.11 13:00-8,0-10,81,5 ⇙2,91000580,0
30.11 12:00-6,8-11,73,0 ⇐3,71001610,0
30.11 11:00-5,6-11,14,0 ⇐5,01002620,0
30.11 10:00-5,1-11,24,9 ⇐6,31003640,0
30.11 09:00-4,4-11,26,3 ⇐7,61003630,0
30.11 08:00-4,2-10,14,9 ⇐6,21004670,1
30.11 07:00-4,2-10,55,6 ⇐7,01004680,1
30.11 06:00-4,2-10,65,7 ⇖7,31005690,0
30.11 05:00-4,5-10,95,6 ⇖8,11005730,0
30.11 04:00-4,1-9,94,8 ⇖6,41005750,0
30.11 03:00-4,6-10,64,9 ⇑6,21005750,0
30.11 02:00-3,2-9,66,1 ⇑7,71005710,0
30.11 01:00-3,2-9,86,5 ⇑8,31005730,0
30.11 00:00-2,9-9,77,1 ⇑9,61005700,0
29.11 23:00-2,9-10,18,1 ⇑10,11005710,0
29.11 22:00-2,7-10,08,4 ⇑11,11004690,0
29.11 21:00-2,5-10,29,7 ⇑11,71004680,0
29.11 20:00-2,6-10,810,8 ⇑13,61003720,0
29.11 19:00-2,4-9,78,9 ⇑13,11003820,0
29.11 18:00-2,0-9,69,8 ⇑11,91002700,0
29.11 17:00-1,9-9,08,4 ⇑10,71002680,0
29.11 16:00-1,4-8,38,2 ⇑10,71001620,0
Position: (69.2402777777,-51.06611111)

[Back]